Station Historical Data
 
Daily Summary for November 11, 2019 Units:  English    Metric   Both
Next Day »
Daily Weekly Monthly Yearly Custom
  Current: High: Low: Average:
Temperature: 71.2 °F 71.6 °F 55.6 °F 60.8 °F
Dew Point: 41.42 °F 41.6 °F 31.48 °F 35.6 °F
Humidity: 34% 47% 31% 39%
Wind Speed: 1mph 5mph 0mph 0.2mph
Wind Gust: 5mph 5mph - -
WindNNE - - NNE
Pressure: 30.06 in 30.10 in 30.04 in -
Precipitation: 0 in      
Historical Graphs
 
 
Tabular Data for November 11, 2019
Time Temperature Dew Point Pressure Wind Wind Speed Wind Gust Humidity Rainfall Rate (Hourly) solar Conditions
00:00 56.8 °F 36.81 °F 30.05 in Calm   3 mph 47% 0 in 0.00 W/m2
00:05 56.8 °F 36.81 °F 30.05 in Calm   3 mph 47% 0 in 0.00 W/m2
00:10 56.8 °F 36.26 °F 30.05 in Calm     46% 0 in 0.00 W/m2
00:15 56.8 °F 35.71 °F 30.04 in Calm   3 mph 45% 0 in 0.00 W/m2
00:20 56.9 °F 35.23 °F 30.05 in Calm     44% 0 in 0.00 W/m2
00:25 57 °F 34.75 °F 30.05 in Calm     43% 0 in 0.00 W/m2
00:30 57.2 °F 35.5 °F 30.05 in Calm     44% 0 in 0.00 W/m2
00:35 57.2 °F 34.34 °F 30.05 in Calm     42% 0 in 0.00 W/m2
00:40 57.4 °F 33.91 °F 30.04 in Calm     41% 0 in 0.00 W/m2
00:45 57.5 °F 33.39 °F 30.04 in Calm   3 mph 40% 0 in 0.00 W/m2
00:50 57.7 °F 32.94 °F 30.04 in Calm   4 mph 39% 0 in 0.00 W/m2
00:55 57.8 °F 32.38 °F 30.04 in Calm   5 mph 38% 0 in 0.00 W/m2
01:00 58.1 °F 31.99 °F 30.04 in Calm   1 mph 37% 0 in 0.00 W/m2
01:05 58.3 °F 31.48 °F 30.05 in Calm     36% 0 in 0.00 W/m2
01:10 58.5 °F 31.66 °F 30.04 in Calm     36% 0 in 0.00 W/m2
01:15 58.7 °F 31.84 °F 30.05 in Calm     36% 0 in 0.00 W/m2
01:20 58.9 °F 32.02 °F 30.05 in Calm     36% 0 in 0.00 W/m2
01:25 59.1 °F 32.87 °F 30.05 in Calm     37% 0 in 0.00 W/m2
01:30 59.3 °F 33.05 °F 30.05 in Calm     37% 0 in 0.00 W/m2
01:35 59.4 °F 31.76 °F 30.05 in Calm     35% 0 in 0.00 W/m2
01:40 59.4 °F 32.46 °F 30.05 in NNE 2 mph 2 mph 36% 0 in 0.00 W/m2
01:45 59.3 °F 31.67 °F 30.05 in Calm   1 mph 35% 0 in 0.00 W/m2
01:50 59.2 °F 32.28 °F 30.05 in Calm   2 mph 36% 0 in 0.00 W/m2
01:55 59.1 °F 31.5 °F 30.05 in Calm     35% 0 in 0.00 W/m2
02:00 59.1 °F 31.5 °F 30.05 in Calm     35% 0 in 0.00 W/m2
02:05 59.1 °F 31.5 °F 30.06 in Calm   2 mph 35% 0 in 0.00 W/m2
02:10 59.1 °F 31.5 °F 30.05 in Calm     35% 0 in 0.00 W/m2
02:15 59.1 °F 31.5 °F 30.05 in Calm     35% 0 in 0.00 W/m2
02:20 59.1 °F 32.19 °F 30.05 in Calm     36% 0 in 0.00 W/m2
02:25 59 °F 32.79 °F 30.05 in Calm     37% 0 in 0.00 W/m2
02:30 58.8 °F 33.92 °F 30.05 in Calm     39% 0 in 0.00 W/m2
02:35 58.5 °F 34.28 °F 30.05 in Calm     40% 0 in 0.00 W/m2
02:40 58.2 °F 34.02 °F 30.04 in Calm   3 mph 40% 0 in 0.00 W/m2
02:45 57.9 °F 33.75 °F 30.04 in NNE 1 mph 4 mph 40% 0 in 0.00 W/m2
02:50 57.6 °F 33.48 °F 30.05 in Calm   3 mph 40% 0 in 0.00 W/m2
02:55 57.4 °F 33.3 °F 30.05 in Calm     40% 0 in 0.00 W/m2
03:00 57.2 °F 33.73 °F 30.05 in Calm     41% 0 in 0.00 W/m2
03:05 57 °F 32.94 °F 30.05 in Calm     40% 0 in 0.00 W/m2
03:10 56.9 °F 32.22 °F 30.05 in Calm     39% 0 in 0.00 W/m2
03:15 56.9 °F 31.58 °F 30.05 in Calm     38% 0 in 0.00 W/m2
03:20 56.8 °F 32.13 °F 30.05 in Calm     39% 0 in 0.00 W/m2
03:25 56.9 °F 32.85 °F 30.05 in Calm     40% 0 in 0.00 W/m2
03:30 56.8 °F 32.76 °F 30.05 in Calm     40% 0 in 0.00 W/m2
03:35 56.7 °F 32.67 °F 30.05 in Calm     40% 0 in 0.00 W/m2
03:40 56.6 °F 33.19 °F 30.05 in Calm     41% 0 in 0.00 W/m2
03:45 56.4 °F 33.01 °F 30.05 in Calm     41% 0 in 0.00 W/m2
03:50 56.3 °F 33.52 °F 30.05 in Calm     42% 0 in 0.00 W/m2
03:55 56.1 °F 33.34 °F 30.05 in Calm   1 mph 42% 0 in 0.00 W/m2
04:00 56 °F 33.25 °F 30.05 in Calm     42% 0 in 0.00 W/m2
04:05 55.9 °F 33.16 °F 30.05 in Calm     42% 0 in 0.00 W/m2
04:10 55.8 °F 33.66 °F 30.05 in Calm     43% 0 in 0.00 W/m2
04:15 55.8 °F 33.66 °F 30.05 in Calm     43% 0 in 0.00 W/m2
04:20 55.7 °F 34.71 °F 30.05 in Calm     45% 0 in 0.00 W/m2
04:25 55.7 °F 34.71 °F 30.05 in Calm   3 mph 45% 0 in 0.00 W/m2
04:30 55.7 °F 35.26 °F 30.05 in Calm     46% 0 in 0.00 W/m2
04:35 55.6 °F 35.17 °F 30.05 in Calm     46% 0 in 0.00 W/m2
04:40 55.7 °F 35.8 °F 30.05 in Calm     47% 0 in 0.00 W/m2
04:45 55.7 °F 35.8 °F 30.05 in Calm     47% 0 in 0.00 W/m2
04:50 55.7 °F 35.8 °F 30.05 in Calm     47% 0 in 0.00 W/m2
04:55 55.8 °F 35.35 °F 30.05 in Calm     46% 0 in 0.00 W/m2
05:00 55.9 °F 35.44 °F 30.05 in Calm     46% 0 in 0.00 W/m2
05:05 55.9 °F 35.44 °F 30.06 in Calm     46% 0 in 0.00 W/m2
05:10 55.9 °F 35.44 °F 30.06 in Calm     46% 0 in 0.00 W/m2
05:15 55.9 °F 35.44 °F 30.06 in Calm     46% 0 in 0.00 W/m2
05:20 55.9 °F 34.89 °F 30.06 in Calm     45% 0 in 0.00 W/m2
05:25 55.9 °F 34.89 °F 30.06 in Calm     45% 0 in 0.00 W/m2
05:30 56 °F 35.53 °F 30.06 in Calm     46% 0 in 0.00 W/m2
05:35 55.9 °F 34.89 °F 30.06 in Calm     45% 0 in 0.00 W/m2
05:40 55.9 °F 34.32 °F 30.07 in Calm     44% 0 in 0.00 W/m2
05:45 55.9 °F 34.32 °F 30.06 in Calm     44% 0 in 0.00 W/m2
05:50 56 °F 33.84 °F 30.06 in Calm     43% 0 in 0.00 W/m2
05:55 56 °F 33.84 °F 30.07 in Calm     43% 0 in 0.00 W/m2
06:00 56.1 °F 33.34 °F 30.07 in Calm     42% 0 in 0.00 W/m2
06:05 56.1 °F 33.34 °F 30.06 in Calm     42% 0 in 0.00 W/m2
06:10 56.2 °F 33.43 °F 30.06 in Calm     42% 0 in 0.00 W/m2
06:15 56.2 °F 33.43 °F 30.06 in Calm     42% 0 in 0.00 W/m2
06:20 56.3 °F 32.92 °F 30.06 in Calm     41% 0 in 0.00 W/m2
06:25 56.4 °F 33.01 °F 30.06 in Calm   2 mph 41% 0 in 0.00 W/m2
06:30 56.4 °F 32.4 °F 30.06 in Calm   2 mph 40% 0 in 0.00 W/m2
06:35 56.5 °F 33.1 °F 30.07 in Calm     41% 0 in 0.00 W/m2
06:40 56.6 °F 33.19 °F 30.07 in Calm     41% 0 in 5.00 W/m2
06:45 56.7 °F 32.67 °F 30.07 in Calm     40% 0 in 7.00 W/m2
06:50 56.8 °F 32.76 °F 30.07 in Calm     40% 0 in 11.00 W/m2
06:55 56.9 °F 33.46 °F 30.07 in Calm     41% 0 in 14.00 W/m2
07:00 56.9 °F 32.85 °F 30.08 in Calm     40% 0 in 25.00 W/m2
07:05 57.1 °F 33.03 °F 30.08 in Calm   3 mph 40% 0 in 25.00 W/m2
07:10 57.2 °F 33.12 °F 30.08 in Calm   5 mph 40% 0 in 35.00 W/m2
07:15 57.3 °F 33.82 °F 30.08 in Calm   5 mph 41% 0 in 54.00 W/m2
07:20 57.4 °F 33.91 °F 30.08 in Calm   4 mph 41% 0 in 63.00 W/m2
07:25 57.5 °F 34 °F 30.08 in Calm   2 mph 41% 0 in 88.00 W/m2
07:30 57.7 °F 34.18 °F 30.09 in Calm   4 mph 41% 0 in 104.00 W/m2
07:35 58 °F 34.45 °F 30.09 in NNE 1 mph 4 mph 41% 0 in 105.00 W/m2
07:40 58.1 °F 34.54 °F 30.09 in Calm   4 mph 41% 0 in 127.00 W/m2
07:45 58.3 °F 34.72 °F 30.09 in Calm   5 mph 41% 0 in 130.00 W/m2
07:50 58.5 °F 34.9 °F 30.09 in NNE 1 mph 4 mph 41% 0 in 172.00 W/m2
07:55 58.7 °F 35.08 °F 30.09 in Calm   3 mph 41% 0 in 188.00 W/m2
08:00 58.8 °F 34.55 °F 30.09 in Calm     40% 0 in 211.00 W/m2
08:05 59 °F 34.73 °F 30.09 in Calm     40% 0 in 221.00 W/m2
08:10 59.2 °F 34.28 °F 30.09 in Calm     39% 0 in 230.00 W/m2
08:15 59.5 °F 35.8 °F 30.10 in Calm     41% 0 in 179.00 W/m2
08:20 59.7 °F 35.98 °F 30.10 in Calm     41% 0 in 250.00 W/m2
08:25 59.9 °F 36.16 °F 30.10 in Calm     41% 0 in 251.00 W/m2
08:30 60.2 °F 36.43 °F 30.10 in Calm     41% 0 in 207.00 W/m2
08:35 60.4 °F 36.61 °F 30.10 in Calm   2 mph 41% 0 in 301.00 W/m2
08:40 60.6 °F 36.79 °F 30.10 in Calm   2 mph 41% 0 in 304.00 W/m2
08:45 60.7 °F 36.88 °F 30.10 in Calm     41% 0 in 301.00 W/m2
08:50 60.9 °F 36.44 °F 30.10 in Calm     40% 0 in 330.00 W/m2
08:55 61.1 °F 35.98 °F 30.10 in Calm     39% 0 in 339.00 W/m2
09:00 61.3 °F 36.8 °F 30.10 in Calm     40% 0 in 362.00 W/m2
09:05 61.6 °F 34.41 °F 30.10 in Calm     36% 0 in 360.00 W/m2
09:10 61.8 °F 34.59 °F 30.10 in Calm     36% 0 in 383.00 W/m2
09:15 62.1 °F 36.21 °F 30.10 in Calm     38% 0 in 410.00 W/m2
09:20 62.5 °F 36.57 °F 30.10 in Calm     38% 0 in 420.00 W/m2
09:25 62.7 °F 36.08 °F 30.10 in Calm     37% 0 in 367.00 W/m2
09:30 63 °F 38.32 °F 30.10 in Calm   2 mph 40% 0 in 350.00 W/m2
09:35 63.3 °F 38.59 °F 30.10 in Calm   2 mph 40% 0 in 346.00 W/m2
09:40 63.6 °F 38.86 °F 30.10 in Calm   3 mph 40% 0 in 352.00 W/m2
09:45 63.9 °F 39.76 °F 30.10 in Calm   1 mph 41% 0 in 322.00 W/m2
09:50 64.1 °F 39.31 °F 30.09 in Calm     40% 0 in 413.00 W/m2
09:55 64.5 °F 39.67 °F 30.09 in Calm   2 mph 40% 0 in 438.00 W/m2
10:00 64.9 °F 40.03 °F 30.10 in Calm     40% 0 in 371.00 W/m2
10:05 65.3 °F 40.38 °F 30.10 in Calm     40% 0 in 415.00 W/m2
10:10 66.1 °F 41.1 °F 30.10 in Calm   2 mph 40% 0 in 431.00 W/m2
10:15 66.8 °F 41.07 °F 30.10 in Calm     39% 0 in 406.00 W/m2
10:20 67.2 °F 41.43 °F 30.10 in Calm   1 mph 39% 0 in 468.00 W/m2
10:25 67.7 °F 40.52 °F 30.10 in NNE 1 mph 2 mph 37% 0 in 489.00 W/m2
10:30 68.2 °F 40.96 °F 30.10 in Calm   2 mph 37% 0 in 489.00 W/m2
10:35 68.7 °F 40.7 °F 30.10 in Calm     36% 0 in 494.00 W/m2
10:40 69.1 °F 39.58 °F 30.10 in NNE 1 mph 3 mph 34% 0 in 461.00 W/m2
10:45 69.5 °F 39.93 °F 30.10 in Calm   2 mph 34% 0 in 527.00 W/m2
10:50 69.7 °F 40.11 °F 30.10 in Calm   3 mph 34% 0 in 522.00 W/m2
10:55 69.9 °F 40.28 °F 30.10 in NNE 1 mph 5 mph 34% 0 in 513.00 W/m2
11:00 70.1 °F 40.46 °F 30.10 in NNE 5 mph 5 mph 34% 0 in 503.00 W/m2
11:05 70.3 °F 40.63 °F 30.10 in NNE 1 mph 5 mph 34% 0 in 524.00 W/m2
11:10 70.4 °F 39.95 °F 30.10 in NNE 3 mph 5 mph 33% 0 in 519.00 W/m2
11:15 70.3 °F 39.08 °F 30.10 in Calm   4 mph 32% 0 in 485.00 W/m2
11:20 70.4 °F 39.95 °F 30.09 in NNE 3 mph 4 mph 33% 0 in 512.00 W/m2
11:25 70.4 °F 39.95 °F 30.09 in NNE 2 mph 4 mph 33% 0 in 529.00 W/m2
11:30 70.2 °F 38.99 °F 30.09 in Calm   3 mph 32% 0 in 461.00 W/m2
11:35 70.1 °F 38.9 °F 30.09 in NNE 2 mph 4 mph 32% 0 in 476.00 W/m2
11:40 70.3 °F 39.08 °F 30.09 in Calm     32% 0 in 476.00 W/m2
11:45 70.4 °F 39.95 °F 30.08 in NNE 1 mph 4 mph 33% 0 in 438.00 W/m2
11:50 70.7 °F 39.42 °F 30.08 in NNE 1 mph 4 mph 32% 0 in 441.00 W/m2
11:55 70.9 °F 39.6 °F 30.08 in NNE 4 mph 4 mph 32% 0 in 441.00 W/m2
12:00 71 °F 39.69 °F 30.08 in NNE 1 mph 4 mph 32% 0 in 443.00 W/m2
12:05 70.9 °F 39.6 °F 30.08 in Calm   3 mph 32% 0 in 464.00 W/m2
12:10 70.9 °F 40.39 °F 30.08 in Calm   4 mph 33% 0 in 422.00 W/m2
12:15 71 °F 40.48 °F 30.07 in Calm   4 mph 33% 0 in 425.00 W/m2
12:20 71.2 °F 39.86 °F 30.07 in Calm     32% 0 in 381.00 W/m2
12:25 71.3 °F 40.74 °F 30.07 in Calm     33% 0 in 357.00 W/m2
12:30 71.2 °F 39.86 °F 30.07 in Calm   1 mph 32% 0 in 388.00 W/m2
12:35 71.3 °F 39.95 °F 30.06 in Calm     32% 0 in 350.00 W/m2
12:40 71.5 °F 40.12 °F 30.06 in Calm   1 mph 32% 0 in 302.00 W/m2
12:45 71.6 °F 39.39 °F 30.06 in NNE 2 mph 2 mph 31% 0 in 325.00 W/m2
12:50 71.5 °F 40.92 °F 30.06 in Calm   3 mph 33% 0 in 316.00 W/m2
12:55 71.4 °F 41.6 °F 30.06 in NNE 1 mph 1 mph 34% 0 in 313.00 W/m2
13:00 71.2 °F 41.42 °F 30.06 in NNE 1 mph 5 mph 34% 0 in 336.00 W/m2
Foresthill Weather
 WU-history PHP script courtesy of   Juneau County Weather.
powered by Cumulus v1.9.3 (1059)
Ambient Weather VWS v14.00
Top Website Map Copyright © 2007 - 2019 Foresthillweather.com Never base important decisions on this or any weather information obtained from the Internet